sensor_id;sensor_type;location;lat;lon;timestamp;P1;durP1;ratioP1;P2;durP2;ratioP2
12660;SDS011;39039;51.802;5.710;2023-02-18T00:02:19;60.57;;;42.83;;
12660;SDS011;39039;51.802;5.710;2023-02-18T00:04:46;56.30;;;45.27;;
12660;SDS011;39039;51.802;5.710;2023-02-18T00:07:13;62.83;;;45.97;;
12660;SDS011;39039;51.802;5.710;2023-02-18T00:09:40;59.90;;;45.70;;
12660;SDS011;39039;51.802;5.710;2023-02-18T00:12:07;59.07;;;46.57;;
12660;SDS011;39039;51.802;5.710;2023-02-18T00:14:35;69.30;;;48.23;;
12660;SDS011;39039;51.802;5.710;2023-02-18T00:17:03;60.77;;;45.70;;
12660;SDS011;39039;51.802;5.710;2023-02-18T00:19:30;64.20;;;45.33;;
12660;SDS011;39039;51.802;5.710;2023-02-18T00:21:57;64.87;;;47.20;;
12660;SDS011;39039;51.802;5.710;2023-02-18T00:24:24;61.57;;;45.17;;
12660;SDS011;39039;51.802;5.710;2023-02-18T00:26:51;60.77;;;44.30;;
12660;SDS011;39039;51.802;5.710;2023-02-18T00:29:18;62.90;;;44.93;;
12660;SDS011;39039;51.802;5.710;2023-02-18T00:31:46;63.23;;;46.80;;
12660;SDS011;39039;51.802;5.710;2023-02-18T00:34:14;64.63;;;45.87;;
12660;SDS011;39039;51.802;5.710;2023-02-18T00:36:41;65.20;;;47.10;;
12660;SDS011;39039;51.802;5.710;2023-02-18T00:39:08;63.30;;;45.37;;
12660;SDS011;39039;51.802;5.710;2023-02-18T00:41:36;66.83;;;47.17;;
12660;SDS011;39039;51.802;5.710;2023-02-18T00:44:03;60.50;;;46.80;;
12660;SDS011;39039;51.802;5.710;2023-02-18T00:46:30;64.53;;;47.30;;
12660;SDS011;39039;51.802;5.710;2023-02-18T00:48:57;64.30;;;48.73;;
12660;SDS011;39039;51.802;5.710;2023-02-18T00:51:26;66.17;;;46.73;;
12660;SDS011;39039;51.802;5.710;2023-02-18T00:53:53;61.23;;;49.03;;
12660;SDS011;39039;51.802;5.710;2023-02-18T00:56:20;65.77;;;49.73;;
12660;SDS011;39039;51.802;5.710;2023-02-18T00:58:47;67.07;;;56.83;;
12660;SDS011;39039;51.802;5.710;2023-02-18T01:01:14;64.27;;;50.07;;
12660;SDS011;39039;51.802;5.710;2023-02-18T01:03:41;62.77;;;49.23;;
12660;SDS011;39039;51.802;5.710;2023-02-18T01:06:09;58.67;;;46.63;;
12660;SDS011;39039;51.802;5.710;2023-02-18T01:08:38;71.17;;;49.40;;
12660;SDS011;39039;51.802;5.710;2023-02-18T01:11:06;62.67;;;49.53;;
12660;SDS011;39039;51.802;5.710;2023-02-18T01:13:34;61.23;;;48.77;;
12660;SDS011;39039;51.802;5.710;2023-02-18T01:16:01;70.50;;;50.67;;
12660;SDS011;39039;51.802;5.710;2023-02-18T01:18:28;65.67;;;48.90;;
12660;SDS011;39039;51.802;5.710;2023-02-18T01:20:55;65.57;;;47.73;;
12660;SDS011;39039;51.802;5.710;2023-02-18T01:23:23;62.07;;;50.30;;
12660;SDS011;39039;51.802;5.710;2023-02-18T01:25:51;62.73;;;48.60;;
12660;SDS011;39039;51.802;5.710;2023-02-18T01:28:19;61.57;;;50.67;;
12660;SDS011;39039;51.802;5.710;2023-02-18T01:30:49;65.00;;;52.67;;
12660;SDS011;39039;51.802;5.710;2023-02-18T01:33:15;64.63;;;52.20;;
12660;SDS011;39039;51.802;5.710;2023-02-18T01:35:42;70.00;;;52.90;;
12660;SDS011;39039;51.802;5.710;2023-02-18T01:38:10;63.27;;;51.03;;
12660;SDS011;39039;51.802;5.710;2023-02-18T01:40:43;64.00;;;51.43;;
12660;SDS011;39039;51.802;5.710;2023-02-18T01:43:12;66.67;;;56.23;;
12660;SDS011;39039;51.802;5.710;2023-02-18T01:45:56;65.70;;;52.60;;
12660;SDS011;39039;51.802;5.710;2023-02-18T01:48:26;61.50;;;51.10;;
12660;SDS011;39039;51.802;5.710;2023-02-18T01:50:55;67.20;;;55.03;;
12660;SDS011;39039;51.802;5.710;2023-02-18T01:53:24;70.60;;;56.63;;
12660;SDS011;39039;51.802;5.710;2023-02-18T01:55:52;64.17;;;52.43;;
12660;SDS011;39039;51.802;5.710;2023-02-18T01:58:21;63.10;;;51.30;;
12660;SDS011;39039;51.802;5.710;2023-02-18T02:00:48;68.83;;;52.20;;
12660;SDS011;39039;51.802;5.710;2023-02-18T02:03:16;63.30;;;50.33;;
12660;SDS011;39039;51.802;5.710;2023-02-18T02:05:43;62.97;;;50.87;;
12660;SDS011;39039;51.802;5.710;2023-02-18T02:08:10;65.70;;;48.90;;
12660;SDS011;39039;51.802;5.710;2023-02-18T02:10:43;62.20;;;48.53;;
12660;SDS011;39039;51.802;5.710;2023-02-18T02:13:16;62.17;;;48.63;;
12660;SDS011;39039;51.802;5.710;2023-02-18T02:15:48;66.67;;;50.70;;
12660;SDS011;39039;51.802;5.710;2023-02-18T02:18:26;65.93;;;47.70;;
12660;SDS011;39039;51.802;5.710;2023-02-18T02:21:03;65.03;;;49.67;;
12660;SDS011;39039;51.802;5.710;2023-02-18T02:26:34;61.63;;;50.37;;
12660;SDS011;39039;51.802;5.710;2023-02-18T02:29:26;62.17;;;47.00;;
12660;SDS011;39039;51.802;5.710;2023-02-18T02:32:02;66.37;;;49.50;;
12660;SDS011;39039;51.802;5.710;2023-02-18T02:34:36;60.80;;;45.87;;
12660;SDS011;39039;51.802;5.710;2023-02-18T02:37:06;63.93;;;47.70;;
12660;SDS011;39039;51.802;5.710;2023-02-18T02:39:39;60.50;;;45.07;;
12660;SDS011;39039;51.802;5.710;2023-02-18T02:42:11;62.57;;;43.33;;
12660;SDS011;39039;51.802;5.710;2023-02-18T02:44:42;59.90;;;41.37;;
12660;SDS011;39039;51.802;5.710;2023-02-18T02:47:13;59.77;;;42.27;;
12660;SDS011;39039;51.802;5.710;2023-02-18T02:49:47;61.43;;;44.87;;
12660;SDS011;39039;51.802;5.710;2023-02-18T02:52:16;59.97;;;45.30;;
12660;SDS011;39039;51.802;5.710;2023-02-18T02:54:44;68.33;;;44.33;;
12660;SDS011;39039;51.802;5.710;2023-02-18T02:59:54;64.43;;;46.00;;
12660;SDS011;39039;51.802;5.710;2023-02-18T03:02:23;59.53;;;44.43;;
12660;SDS011;39039;51.802;5.710;2023-02-18T03:05:00;68.67;;;48.50;;
12660;SDS011;39039;51.802;5.710;2023-02-18T03:07:39;66.30;;;46.93;;
12660;SDS011;39039;51.802;5.710;2023-02-18T03:13:02;75.70;;;47.70;;
12660;SDS011;39039;51.802;5.710;2023-02-18T03:15:32;84.20;;;48.30;;
12660;SDS011;39039;51.802;5.710;2023-02-18T03:18:00;74.73;;;48.40;;
12660;SDS011;39039;51.802;5.710;2023-02-18T03:20:30;87.30;;;49.37;;
12660;SDS011;39039;51.802;5.710;2023-02-18T03:23:00;73.60;;;46.83;;
12660;SDS011;39039;51.802;5.710;2023-02-18T03:25:29;92.17;;;48.50;;
12660;SDS011;39039;51.802;5.710;2023-02-18T03:27:58;74.53;;;48.13;;
12660;SDS011;39039;51.802;5.710;2023-02-18T03:30:27;94.93;;;47.63;;
12660;SDS011;39039;51.802;5.710;2023-02-18T03:32:58;83.33;;;49.90;;
12660;SDS011;39039;51.802;5.710;2023-02-18T03:35:28;97.03;;;46.83;;
12660;SDS011;39039;51.802;5.710;2023-02-18T03:37:57;104.73;;;50.00;;
12660;SDS011;39039;51.802;5.710;2023-02-18T03:40:27;80.40;;;49.87;;
12660;SDS011;39039;51.802;5.710;2023-02-18T03:42:55;76.73;;;44.97;;
12660;SDS011;39039;51.802;5.710;2023-02-18T03:45:22;66.33;;;43.10;;
12660;SDS011;39039;51.802;5.710;2023-02-18T03:47:49;63.63;;;43.33;;
12660;SDS011;39039;51.802;5.710;2023-02-18T03:50:16;54.53;;;35.03;;
12660;SDS011;39039;51.802;5.710;2023-02-18T03:52:44;58.53;;;39.03;;
12660;SDS011;39039;51.802;5.710;2023-02-18T03:55:12;51.70;;;35.80;;
12660;SDS011;39039;51.802;5.710;2023-02-18T03:57:39;52.67;;;35.57;;
12660;SDS011;39039;51.802;5.710;2023-02-18T04:00:07;54.27;;;32.80;;
12660;SDS011;39039;51.802;5.710;2023-02-18T04:02:35;45.70;;;32.07;;
12660;SDS011;39039;51.802;5.710;2023-02-18T04:05:02;41.17;;;30.97;;
12660;SDS011;39039;51.802;5.710;2023-02-18T04:07:29;41.17;;;30.03;;
12660;SDS011;39039;51.802;5.710;2023-02-18T04:09:56;35.27;;;28.40;;
12660;SDS011;39039;51.802;5.710;2023-02-18T04:12:24;36.37;;;27.90;;
12660;SDS011;39039;51.802;5.710;2023-02-18T04:14:51;32.60;;;26.60;;
12660;SDS011;39039;51.802;5.710;2023-02-18T04:17:19;27.17;;;24.33;;
12660;SDS011;39039;51.802;5.710;2023-02-18T04:19:46;30.67;;;26.93;;
12660;SDS011;39039;51.802;5.710;2023-02-18T04:22:13;28.47;;;25.73;;
12660;SDS011;39039;51.802;5.710;2023-02-18T04:24:40;31.10;;;28.10;;
12660;SDS011;39039;51.802;5.710;2023-02-18T04:27:07;33.47;;;29.83;;
12660;SDS011;39039;51.802;5.710;2023-02-18T04:29:35;35.50;;;30.80;;
12660;SDS011;39039;51.802;5.710;2023-02-18T04:32:02;30.70;;;27.50;;
12660;SDS011;39039;51.802;5.710;2023-02-18T04:34:30;27.50;;;24.90;;
12660;SDS011;39039;51.802;5.710;2023-02-18T04:36:56;31.63;;;28.63;;
12660;SDS011;39039;51.802;5.710;2023-02-18T04:39:23;28.00;;;25.07;;
12660;SDS011;39039;51.802;5.710;2023-02-18T04:41:50;26.00;;;23.40;;
12660;SDS011;39039;51.802;5.710;2023-02-18T04:44:18;27.67;;;23.07;;
12660;SDS011;39039;51.802;5.710;2023-02-18T04:46:46;24.37;;;21.87;;
12660;SDS011;39039;51.802;5.710;2023-02-18T04:49:13;28.00;;;25.30;;
12660;SDS011;39039;51.802;5.710;2023-02-18T04:51:40;26.47;;;24.30;;
12660;SDS011;39039;51.802;5.710;2023-02-18T04:54:07;24.70;;;22.33;;
12660;SDS011;39039;51.802;5.710;2023-02-18T04:56:34;25.17;;;22.70;;
12660;SDS011;39039;51.802;5.710;2023-02-18T04:59:01;26.70;;;24.30;;
12660;SDS011;39039;51.802;5.710;2023-02-18T05:01:31;26.87;;;24.43;;
12660;SDS011;39039;51.802;5.710;2023-02-18T05:04:00;26.37;;;24.07;;
12660;SDS011;39039;51.802;5.710;2023-02-18T05:06:27;25.77;;;23.47;;
12660;SDS011;39039;51.802;5.710;2023-02-18T05:08:54;23.57;;;21.37;;
12660;SDS011;39039;51.802;5.710;2023-02-18T05:11:21;23.07;;;21.13;;
12660;SDS011;39039;51.802;5.710;2023-02-18T05:13:48;26.70;;;24.30;;
12660;SDS011;39039;51.802;5.710;2023-02-18T05:16:15;24.37;;;21.83;;
12660;SDS011;39039;51.802;5.710;2023-02-18T05:18:42;24.40;;;22.00;;
12660;SDS011;39039;51.802;5.710;2023-02-18T05:21:10;25.40;;;22.80;;
12660;SDS011;39039;51.802;5.710;2023-02-18T05:23:38;26.20;;;23.67;;
12660;SDS011;39039;51.802;5.710;2023-02-18T05:26:05;23.50;;;21.03;;
12660;SDS011;39039;51.802;5.710;2023-02-18T05:28:32;27.07;;;24.57;;
12660;SDS011;39039;51.802;5.710;2023-02-18T05:30:59;26.23;;;23.50;;
12660;SDS011;39039;51.802;5.710;2023-02-18T05:33:26;26.83;;;24.30;;
12660;SDS011;39039;51.802;5.710;2023-02-18T05:35:53;27.43;;;24.93;;
12660;SDS011;39039;51.802;5.710;2023-02-18T05:38:22;25.30;;;22.90;;
12660;SDS011;39039;51.802;5.710;2023-02-18T05:40:49;27.13;;;24.43;;
12660;SDS011;39039;51.802;5.710;2023-02-18T05:43:16;27.17;;;24.20;;
12660;SDS011;39039;51.802;5.710;2023-02-18T05:45:43;28.77;;;26.07;;
12660;SDS011;39039;51.802;5.710;2023-02-18T05:48:11;31.63;;;28.23;;
12660;SDS011;39039;51.802;5.710;2023-02-18T05:50:38;28.43;;;26.03;;
12660;SDS011;39039;51.802;5.710;2023-02-18T05:53:05;27.67;;;25.17;;
12660;SDS011;39039;51.802;5.710;2023-02-18T05:55:33;25.83;;;23.40;;
12660;SDS011;39039;51.802;5.710;2023-02-18T05:58:03;27.43;;;24.77;;
12660;SDS011;39039;51.802;5.710;2023-02-18T06:00:30;25.27;;;22.80;;
12660;SDS011;39039;51.802;5.710;2023-02-18T06:02:57;26.67;;;23.87;;
12660;SDS011;39039;51.802;5.710;2023-02-18T06:05:24;26.37;;;23.73;;
12660;SDS011;39039;51.802;5.710;2023-02-18T06:07:51;24.80;;;22.40;;
12660;SDS011;39039;51.802;5.710;2023-02-18T06:10:18;23.97;;;21.73;;
12660;SDS011;39039;51.802;5.710;2023-02-18T06:12:47;26.47;;;23.73;;
12660;SDS011;39039;51.802;5.710;2023-02-18T06:15:14;25.83;;;22.53;;
12660;SDS011;39039;51.802;5.710;2023-02-18T06:17:41;23.07;;;20.80;;
12660;SDS011;39039;51.802;5.710;2023-02-18T06:20:09;24.40;;;21.90;;
12660;SDS011;39039;51.802;5.710;2023-02-18T06:22:36;24.80;;;22.30;;
12660;SDS011;39039;51.802;5.710;2023-02-18T06:25:03;24.73;;;22.40;;
12660;SDS011;39039;51.802;5.710;2023-02-18T06:27:30;22.67;;;20.57;;
12660;SDS011;39039;51.802;5.710;2023-02-18T06:29:58;22.23;;;20.13;;
12660;SDS011;39039;51.802;5.710;2023-02-18T06:32:25;23.50;;;21.23;;
12660;SDS011;39039;51.802;5.710;2023-02-18T06:34:52;22.57;;;20.50;;
12660;SDS011;39039;51.802;5.710;2023-02-18T06:37:19;22.67;;;20.43;;
12660;SDS011;39039;51.802;5.710;2023-02-18T06:39:46;23.27;;;21.13;;
12660;SDS011;39039;51.802;5.710;2023-02-18T06:42:13;24.33;;;21.90;;
12660;SDS011;39039;51.802;5.710;2023-02-18T06:44:40;23.83;;;21.43;;
12660;SDS011;39039;51.802;5.710;2023-02-18T06:47:09;21.13;;;19.17;;
12660;SDS011;39039;51.802;5.710;2023-02-18T06:49:36;26.83;;;24.63;;
12660;SDS011;39039;51.802;5.710;2023-02-18T06:52:03;22.43;;;20.43;;
12660;SDS011;39039;51.802;5.710;2023-02-18T06:54:30;22.63;;;20.23;;
12660;SDS011;39039;51.802;5.710;2023-02-18T06:56:57;22.97;;;20.83;;
12660;SDS011;39039;51.802;5.710;2023-02-18T06:59:24;21.70;;;19.70;;
12660;SDS011;39039;51.802;5.710;2023-02-18T07:01:51;20.47;;;18.47;;
12660;SDS011;39039;51.802;5.710;2023-02-18T07:04:20;20.57;;;18.67;;
12660;SDS011;39039;51.802;5.710;2023-02-18T07:06:46;21.53;;;19.40;;
12660;SDS011;39039;51.802;5.710;2023-02-18T07:09:13;20.93;;;18.93;;
12660;SDS011;39039;51.802;5.710;2023-02-18T07:11:41;20.70;;;18.70;;
12660;SDS011;39039;51.802;5.710;2023-02-18T07:14:08;21.87;;;19.93;;
12660;SDS011;39039;51.802;5.710;2023-02-18T07:16:35;22.23;;;20.20;;
12660;SDS011;39039;51.802;5.710;2023-02-18T07:19:02;18.83;;;17.03;;
12660;SDS011;39039;51.802;5.710;2023-02-18T07:21:30;21.73;;;19.83;;
12660;SDS011;39039;51.802;5.710;2023-02-18T07:23:57;21.37;;;19.70;;
12660;SDS011;39039;51.802;5.710;2023-02-18T07:26:24;20.97;;;18.90;;
12660;SDS011;39039;51.802;5.710;2023-02-18T07:28:51;18.33;;;16.70;;
12660;SDS011;39039;51.802;5.710;2023-02-18T07:31:18;17.63;;;16.13;;
12660;SDS011;39039;51.802;5.710;2023-02-18T07:33:45;16.80;;;15.40;;
12660;SDS011;39039;51.802;5.710;2023-02-18T07:36:12;17.17;;;15.67;;
12660;SDS011;39039;51.802;5.710;2023-02-18T07:38:41;17.93;;;16.37;;
12660;SDS011;39039;51.802;5.710;2023-02-18T07:41:11;17.73;;;16.33;;
12660;SDS011;39039;51.802;5.710;2023-02-18T07:43:40;17.57;;;16.17;;
12660;SDS011;39039;51.802;5.710;2023-02-18T07:46:07;18.37;;;16.67;;
12660;SDS011;39039;51.802;5.710;2023-02-18T07:48:34;22.63;;;20.70;;
12660;SDS011;39039;51.802;5.710;2023-02-18T07:51:04;26.07;;;24.07;;
12660;SDS011;39039;51.802;5.710;2023-02-18T07:53:31;98.83;;;90.77;;
12660;SDS011;39039;51.802;5.710;2023-02-18T07:56:00;32.47;;;29.87;;
12660;SDS011;39039;51.802;5.710;2023-02-18T07:58:27;24.43;;;22.17;;
12660;SDS011;39039;51.802;5.710;2023-02-18T08:00:55;22.67;;;20.23;;
12660;SDS011;39039;51.802;5.710;2023-02-18T08:03:23;25.20;;;22.50;;
12660;SDS011;39039;51.802;5.710;2023-02-18T08:05:51;31.83;;;28.70;;
12660;SDS011;39039;51.802;5.710;2023-02-18T08:08:19;72.07;;;65.57;;
12660;SDS011;39039;51.802;5.710;2023-02-18T08:10:48;27.60;;;24.73;;
12660;SDS011;39039;51.802;5.710;2023-02-18T08:13:16;22.20;;;19.93;;
12660;SDS011;39039;51.802;5.710;2023-02-18T08:15:43;23.87;;;21.70;;
12660;SDS011;39039;51.802;5.710;2023-02-18T08:18:13;25.30;;;20.47;;
12660;SDS011;39039;51.802;5.710;2023-02-18T08:20:42;21.63;;;19.63;;
12660;SDS011;39039;51.802;5.710;2023-02-18T08:23:09;22.23;;;19.73;;
12660;SDS011;39039;51.802;5.710;2023-02-18T08:25:36;21.80;;;19.13;;
12660;SDS011;39039;51.802;5.710;2023-02-18T08:28:04;21.47;;;19.23;;
12660;SDS011;39039;51.802;5.710;2023-02-18T08:30:32;21.70;;;19.57;;
12660;SDS011;39039;51.802;5.710;2023-02-18T08:32:59;32.33;;;29.40;;
12660;SDS011;39039;51.802;5.710;2023-02-18T08:35:26;22.80;;;20.40;;
12660;SDS011;39039;51.802;5.710;2023-02-18T08:37:53;28.30;;;25.17;;
12660;SDS011;39039;51.802;5.710;2023-02-18T08:40:20;22.63;;;19.57;;
12660;SDS011;39039;51.802;5.710;2023-02-18T08:42:48;24.30;;;19.60;;
12660;SDS011;39039;51.802;5.710;2023-02-18T08:45:15;30.80;;;27.73;;
12660;SDS011;39039;51.802;5.710;2023-02-18T08:47:43;26.27;;;21.83;;
12660;SDS011;39039;51.802;5.710;2023-02-18T08:50:10;22.37;;;20.33;;
12660;SDS011;39039;51.802;5.710;2023-02-18T08:52:37;22.17;;;19.90;;
12660;SDS011;39039;51.802;5.710;2023-02-18T08:55:05;22.20;;;17.83;;
12660;SDS011;39039;51.802;5.710;2023-02-18T08:57:32;23.43;;;17.50;;
12660;SDS011;39039;51.802;5.710;2023-02-18T08:59:59;23.37;;;19.67;;
12660;SDS011;39039;51.802;5.710;2023-02-18T09:02:26;21.70;;;19.37;;
12660;SDS011;39039;51.802;5.710;2023-02-18T09:04:55;25.83;;;23.47;;
12660;SDS011;39039;51.802;5.710;2023-02-18T09:07:21;24.17;;;21.67;;
12660;SDS011;39039;51.802;5.710;2023-02-18T09:09:48;31.23;;;28.43;;
12660;SDS011;39039;51.802;5.710;2023-02-18T09:12:15;28.33;;;25.43;;
12660;SDS011;39039;51.802;5.710;2023-02-18T09:14:42;22.47;;;19.77;;
12660;SDS011;39039;51.802;5.710;2023-02-18T09:17:09;23.97;;;17.90;;
12660;SDS011;39039;51.802;5.710;2023-02-18T09:19:37;20.97;;;18.77;;
12660;SDS011;39039;51.802;5.710;2023-02-18T09:22:05;24.50;;;20.47;;
12660;SDS011;39039;51.802;5.710;2023-02-18T09:24:35;21.63;;;18.13;;
12660;SDS011;39039;51.802;5.710;2023-02-18T09:27:03;21.63;;;19.43;;
12660;SDS011;39039;51.802;5.710;2023-02-18T09:29:30;27.10;;;21.90;;
12660;SDS011;39039;51.802;5.710;2023-02-18T09:31:58;23.97;;;19.20;;
12660;SDS011;39039;51.802;5.710;2023-02-18T09:34:26;23.13;;;20.80;;
12660;SDS011;39039;51.802;5.710;2023-02-18T09:36:53;30.63;;;22.03;;
12660;SDS011;39039;51.802;5.710;2023-02-18T09:39:24;23.20;;;18.33;;
12660;SDS011;39039;51.802;5.710;2023-02-18T09:41:52;23.50;;;20.77;;
12660;SDS011;39039;51.802;5.710;2023-02-18T09:44:22;22.30;;;18.87;;
12660;SDS011;39039;51.802;5.710;2023-02-18T09:46:51;24.07;;;18.30;;
12660;SDS011;39039;51.802;5.710;2023-02-18T09:49:20;26.33;;;17.83;;
12660;SDS011;39039;51.802;5.710;2023-02-18T09:51:48;20.33;;;17.67;;
12660;SDS011;39039;51.802;5.710;2023-02-18T09:54:16;23.50;;;21.13;;
12660;SDS011;39039;51.802;5.710;2023-02-18T09:56:46;34.20;;;31.20;;
12660;SDS011;39039;51.802;5.710;2023-02-18T09:59:15;24.57;;;20.77;;
12660;SDS011;39039;51.802;5.710;2023-02-18T10:01:42;25.13;;;22.53;;
12660;SDS011;39039;51.802;5.710;2023-02-18T10:04:12;21.07;;;18.60;;
12660;SDS011;39039;51.802;5.710;2023-02-18T10:06:40;22.13;;;20.00;;
12660;SDS011;39039;51.802;5.710;2023-02-18T10:09:10;55.17;;;50.77;;
12660;SDS011;39039;51.802;5.710;2023-02-18T10:11:41;21.37;;;17.77;;
12660;SDS011;39039;51.802;5.710;2023-02-18T10:14:10;18.70;;;16.70;;
12660;SDS011;39039;51.802;5.710;2023-02-18T10:16:38;27.43;;;25.00;;
12660;SDS011;39039;51.802;5.710;2023-02-18T10:19:08;28.30;;;25.60;;
12660;SDS011;39039;51.802;5.710;2023-02-18T10:21:39;19.23;;;15.90;;
12660;SDS011;39039;51.802;5.710;2023-02-18T10:24:09;22.20;;;20.10;;
12660;SDS011;39039;51.802;5.710;2023-02-18T10:26:39;24.57;;;20.53;;
12660;SDS011;39039;51.802;5.710;2023-02-18T10:29:13;21.73;;;18.10;;
12660;SDS011;39039;51.802;5.710;2023-02-18T10:31:42;23.67;;;20.67;;
12660;SDS011;39039;51.802;5.710;2023-02-18T10:34:12;16.03;;;14.43;;
12660;SDS011;39039;51.802;5.710;2023-02-18T10:36:45;18.87;;;15.23;;
12660;SDS011;39039;51.802;5.710;2023-02-18T10:39:18;36.77;;;33.33;;
12660;SDS011;39039;51.802;5.710;2023-02-18T10:41:50;37.13;;;34.17;;
12660;SDS011;39039;51.802;5.710;2023-02-18T10:44:23;37.23;;;34.00;;
12660;SDS011;39039;51.802;5.710;2023-02-18T10:46:56;17.87;;;15.97;;
12660;SDS011;39039;51.802;5.710;2023-02-18T10:49:33;50.93;;;47.00;;
12660;SDS011;39039;51.802;5.710;2023-02-18T10:52:02;50.50;;;46.20;;
12660;SDS011;39039;51.802;5.710;2023-02-18T10:57:14;57.67;;;52.77;;
12660;SDS011;39039;51.802;5.710;2023-02-18T10:59:45;24.50;;;22.43;;
12660;SDS011;39039;51.802;5.710;2023-02-18T11:02:19;19.27;;;17.83;;
12660;SDS011;39039;51.802;5.710;2023-02-18T11:04:47;19.67;;;17.53;;
12660;SDS011;39039;51.802;5.710;2023-02-18T11:07:14;17.33;;;15.67;;
12660;SDS011;39039;51.802;5.710;2023-02-18T11:09:45;17.73;;;15.90;;
12660;SDS011;39039;51.802;5.710;2023-02-18T11:12:13;25.70;;;23.87;;
12660;SDS011;39039;51.802;5.710;2023-02-18T11:14:43;34.00;;;31.37;;
12660;SDS011;39039;51.802;5.710;2023-02-18T11:17:19;26.63;;;23.80;;
12660;SDS011;39039;51.802;5.710;2023-02-18T11:19:51;35.40;;;32.60;;
12660;SDS011;39039;51.802;5.710;2023-02-18T11:22:19;27.30;;;24.70;;
12660;SDS011;39039;51.802;5.710;2023-02-18T11:24:47;25.87;;;23.67;;
12660;SDS011;39039;51.802;5.710;2023-02-18T11:27:19;22.33;;;20.57;;
12660;SDS011;39039;51.802;5.710;2023-02-18T11:29:49;17.50;;;15.90;;
12660;SDS011;39039;51.802;5.710;2023-02-18T11:32:16;21.97;;;20.03;;
12660;SDS011;39039;51.802;5.710;2023-02-18T11:34:45;26.87;;;24.47;;
12660;SDS011;39039;51.802;5.710;2023-02-18T11:37:16;68.47;;;63.33;;
12660;SDS011;39039;51.802;5.710;2023-02-18T11:39:44;34.73;;;31.40;;
12660;SDS011;39039;51.802;5.710;2023-02-18T11:42:13;19.17;;;15.43;;
12660;SDS011;39039;51.802;5.710;2023-02-18T11:44:41;77.17;;;70.40;;
12660;SDS011;39039;51.802;5.710;2023-02-18T11:47:19;19.17;;;17.70;;
12660;SDS011;39039;51.802;5.710;2023-02-18T11:49:59;15.70;;;14.27;;
12660;SDS011;39039;51.802;5.710;2023-02-18T11:52:27;16.83;;;15.33;;
12660;SDS011;39039;51.802;5.710;2023-02-18T11:54:59;29.13;;;26.57;;
12660;SDS011;39039;51.802;5.710;2023-02-18T11:57:27;16.67;;;14.97;;
12660;SDS011;39039;51.802;5.710;2023-02-18T11:59:56;20.37;;;18.70;;
12660;SDS011;39039;51.802;5.710;2023-02-18T12:02:27;22.03;;;16.13;;
12660;SDS011;39039;51.802;5.710;2023-02-18T12:04:59;19.07;;;17.40;;
12660;SDS011;39039;51.802;5.710;2023-02-18T12:07:29;101.27;;;93.10;;
12660;SDS011;39039;51.802;5.710;2023-02-18T12:09:58;18.17;;;16.43;;
12660;SDS011;39039;51.802;5.710;2023-02-18T12:12:26;20.87;;;18.13;;
12660;SDS011;39039;51.802;5.710;2023-02-18T12:14:54;18.70;;;17.23;;
12660;SDS011;39039;51.802;5.710;2023-02-18T12:17:38;76.43;;;70.40;;
12660;SDS011;39039;51.802;5.710;2023-02-18T12:20:16;16.83;;;15.17;;
12660;SDS011;39039;51.802;5.710;2023-02-18T12:22:47;28.67;;;26.43;;
12660;SDS011;39039;51.802;5.710;2023-02-18T12:25:22;17.90;;;16.23;;
12660;SDS011;39039;51.802;5.710;2023-02-18T12:27:53;20.33;;;18.53;;
12660;SDS011;39039;51.802;5.710;2023-02-18T12:30:35;28.40;;;25.90;;
12660;SDS011;39039;51.802;5.710;2023-02-18T12:33:07;19.17;;;17.40;;
12660;SDS011;39039;51.802;5.710;2023-02-18T12:35:51;19.60;;;15.63;;
12660;SDS011;39039;51.802;5.710;2023-02-18T12:44:00;35.33;;;32.20;;
12660;SDS011;39039;51.802;5.710;2023-02-18T12:46:37;22.97;;;20.90;;
12660;SDS011;39039;51.802;5.710;2023-02-18T12:49:09;48.60;;;44.77;;
12660;SDS011;39039;51.802;5.710;2023-02-18T12:51:54;19.80;;;15.37;;
12660;SDS011;39039;51.802;5.710;2023-02-18T12:54:28;17.00;;;14.50;;
12660;SDS011;39039;51.802;5.710;2023-02-18T12:57:09;18.83;;;17.20;;
12660;SDS011;39039;51.802;5.710;2023-02-18T13:02:31;28.67;;;26.07;;
12660;SDS011;39039;51.802;5.710;2023-02-18T13:05:05;22.27;;;20.37;;
12660;SDS011;39039;51.802;5.710;2023-02-18T13:07:40;27.30;;;24.73;;
12660;SDS011;39039;51.802;5.710;2023-02-18T13:10:24;19.73;;;16.50;;
12660;SDS011;39039;51.802;5.710;2023-02-18T13:12:55;26.67;;;24.07;;
12660;SDS011;39039;51.802;5.710;2023-02-18T13:15:28;16.17;;;14.20;;
12660;SDS011;39039;51.802;5.710;2023-02-18T13:18:02;16.93;;;15.00;;
12660;SDS011;39039;51.802;5.710;2023-02-18T13:20:34;21.37;;;19.20;;
12660;SDS011;39039;51.802;5.710;2023-02-18T13:23:04;28.47;;;25.73;;
12660;SDS011;39039;51.802;5.710;2023-02-18T13:25:31;16.60;;;14.87;;
12660;SDS011;39039;51.802;5.710;2023-02-18T13:28:02;19.40;;;16.37;;
12660;SDS011;39039;51.802;5.710;2023-02-18T13:30:36;19.47;;;16.17;;
12660;SDS011;39039;51.802;5.710;2023-02-18T13:33:07;66.10;;;60.87;;
12660;SDS011;39039;51.802;5.710;2023-02-18T13:35:39;28.87;;;26.63;;
12660;SDS011;39039;51.802;5.710;2023-02-18T13:38:21;24.80;;;22.43;;
12660;SDS011;39039;51.802;5.710;2023-02-18T13:40:52;17.53;;;15.97;;
12660;SDS011;39039;51.802;5.710;2023-02-18T13:43:20;23.67;;;21.60;;
12660;SDS011;39039;51.802;5.710;2023-02-18T13:46:01;19.80;;;17.70;;
12660;SDS011;39039;51.802;5.710;2023-02-18T13:48:29;16.20;;;14.93;;
12660;SDS011;39039;51.802;5.710;2023-02-18T13:50:59;18.63;;;16.70;;
12660;SDS011;39039;51.802;5.710;2023-02-18T13:53:29;19.63;;;17.90;;
12660;SDS011;39039;51.802;5.710;2023-02-18T13:56:01;17.50;;;15.60;;
12660;SDS011;39039;51.802;5.710;2023-02-18T13:58:31;24.07;;;21.90;;
12660;SDS011;39039;51.802;5.710;2023-02-18T14:01:02;38.57;;;35.67;;
12660;SDS011;39039;51.802;5.710;2023-02-18T14:03:38;16.30;;;14.93;;
12660;SDS011;39039;51.802;5.710;2023-02-18T14:06:16;17.53;;;15.77;;
12660;SDS011;39039;51.802;5.710;2023-02-18T14:08:44;21.33;;;17.47;;
12660;SDS011;39039;51.802;5.710;2023-02-18T14:14:30;21.73;;;19.10;;
12660;SDS011;39039;51.802;5.710;2023-02-18T14:22:44;21.50;;;19.57;;
12660;SDS011;39039;51.802;5.710;2023-02-18T14:25:20;20.33;;;18.57;;
12660;SDS011;39039;51.802;5.710;2023-02-18T14:27:53;18.40;;;16.57;;
12660;SDS011;39039;51.802;5.710;2023-02-18T14:30:24;20.93;;;19.00;;
12660;SDS011;39039;51.802;5.710;2023-02-18T14:32:55;27.13;;;24.37;;
12660;SDS011;39039;51.802;5.710;2023-02-18T14:35:25;22.67;;;20.17;;
12660;SDS011;39039;51.802;5.710;2023-02-18T14:38:00;45.80;;;41.50;;
12660;SDS011;39039;51.802;5.710;2023-02-18T14:40:48;17.90;;;16.10;;
12660;SDS011;39039;51.802;5.710;2023-02-18T14:43:29;18.23;;;16.60;;
12660;SDS011;39039;51.802;5.710;2023-02-18T14:46:08;22.87;;;20.73;;
12660;SDS011;39039;51.802;5.710;2023-02-18T14:48:41;18.97;;;16.53;;
12660;SDS011;39039;51.802;5.710;2023-02-18T14:51:09;18.13;;;16.20;;
12660;SDS011;39039;51.802;5.710;2023-02-18T14:53:41;20.30;;;18.40;;
12660;SDS011;39039;51.802;5.710;2023-02-18T14:56:11;21.67;;;19.83;;
12660;SDS011;39039;51.802;5.710;2023-02-18T14:58:49;23.53;;;21.47;;
12660;SDS011;39039;51.802;5.710;2023-02-18T15:01:18;16.50;;;14.90;;
12660;SDS011;39039;51.802;5.710;2023-02-18T15:03:46;18.10;;;16.03;;